createdAt,value
2019-01-04T00:03:57.080Z,773.97
2019-01-04T00:06:27.689Z,765.45
2019-01-04T00:08:57.543Z,765.55
2019-01-04T00:15:28.563Z,795.20
2019-01-04T00:21:59.219Z,770.92
2019-01-04T00:28:30.144Z,769.10
2019-01-04T00:31:54.451Z,775.48
2019-01-04T00:38:25.455Z,785.63
2019-01-04T00:41:49.681Z,791.70
2019-01-04T00:48:20.403Z,806.20
2019-01-04T00:51:45.223Z,768.33
2019-01-04T00:58:22.304Z,774.45
2019-01-04T01:01:46.815Z,776.15
2019-01-04T01:08:38.376Z,782.47
2019-01-04T01:15:37.747Z,808.30
2019-01-04T01:22:31.282Z,820.30
2019-01-04T01:29:05.047Z,812.80
2019-01-04T01:36:04.325Z,807.42
2019-01-04T01:43:11.004Z,790.53
2019-01-04T01:46:35.434Z,776.35
2019-01-04T01:53:07.095Z,793.23
2019-01-04T01:59:38.098Z,804.15
2019-01-04T02:03:02.766Z,810.17
2019-01-04T02:09:33.811Z,803.63
2019-01-04T02:12:58.214Z,773.28
2019-01-04T02:19:28.905Z,771.48
2019-01-04T02:25:59.334Z,780.20
2019-01-04T02:29:23.520Z,787.20
2019-01-04T02:35:54.336Z,804.07
2019-01-04T02:39:18.722Z,801.85
2019-01-04T02:45:49.229Z,817.50
2019-01-04T02:49:13.835Z,813.57
2019-01-04T02:55:43.997Z,830.13
2019-01-04T02:59:08.252Z,832.55
2019-01-04T03:05:39.370Z,824.70
2019-01-04T03:09:03.986Z,819.60
2019-01-04T03:11:33.920Z,785.15
2019-01-04T03:18:04.898Z,775.12
2019-01-04T03:21:29.742Z,783.60
2019-01-04T03:27:59.903Z,772.35
2019-01-04T03:31:24.668Z,775.77
2019-01-04T03:37:55.413Z,781.92
2019-01-04T03:44:26.873Z,783.02
2019-01-04T03:47:51.512Z,781.55
2019-01-04T03:54:22.103Z,782.88
2019-01-04T03:57:46.649Z,789.32
2019-01-04T04:04:17.249Z,795.23
2019-01-04T04:10:48.095Z,791.25
2019-01-04T04:17:19.477Z,799.30
2019-01-04T04:23:50.603Z,804.67
2019-01-04T04:27:14.770Z,808.10
2019-01-04T04:33:45.634Z,816.83
2019-01-04T04:37:09.843Z,806.45
2019-01-04T04:43:40.580Z,813.48
2019-01-04T04:47:04.949Z,806.17
2019-01-04T04:53:36.192Z,808.10
2019-01-04T04:56:42.536Z,808.53
2019-01-04T05:03:12.771Z,808.80
2019-01-04T05:09:43.800Z,769.92
2019-01-04T05:12:13.752Z,784.50
2019-01-04T05:18:47.193Z,783.92
2019-01-04T05:25:18.155Z,778.30
2019-01-04T05:31:49.191Z,779.70
2019-01-04T05:35:13.808Z,784.77
2019-01-04T05:41:44.271Z,778.90
2019-01-04T05:45:08.824Z,774.40
2019-01-04T05:51:39.696Z,773.00
2019-01-04T05:54:29.602Z,772.67
2019-01-04T06:00:59.938Z,780.08
2019-01-04T06:07:30.997Z,773.45
2019-01-04T06:10:55.515Z,776.08
2019-01-04T06:13:25.552Z,778.88
2019-01-04T06:19:56.097Z,778.60
2019-01-04T06:26:26.903Z,775.75
2019-01-04T06:32:58.405Z,777.17
2019-01-04T06:39:29.511Z,782.60
2019-01-04T06:42:53.881Z,773.35
2019-01-04T06:49:24.994Z,770.27
2019-01-04T06:55:55.938Z,770.60
2019-01-04T07:02:26.595Z,773.20
2019-01-04T07:08:57.734Z,780.80
2019-01-04T07:15:28.087Z,787.48
2019-01-04T07:21:58.615Z,779.53
2019-01-04T07:28:29.638Z,766.88
2019-01-04T07:35:00.254Z,779.73
2019-01-04T07:38:24.679Z,774.52
2019-01-04T07:44:55.698Z,776.13
2019-01-04T07:48:19.770Z,777.08
2019-01-04T07:54:50.702Z,777.65
2019-01-04T07:57:57.229Z,777.78
2019-01-04T08:04:28.034Z,775.42
2019-01-04T08:07:52.096Z,780.73
2019-01-04T08:14:22.928Z,773.15
2019-01-04T08:16:53.129Z,781.70
2019-01-04T08:23:24.282Z,782.73
2019-01-04T08:29:54.957Z,789.52
2019-01-04T08:33:19.546Z,789.63
2019-01-04T08:39:49.843Z,798.60
2019-01-04T08:43:14.419Z,798.47
2019-01-04T08:49:45.345Z,806.38
2019-01-04T08:53:10.175Z,807.75
2019-01-04T08:59:40.835Z,808.83
2019-01-04T09:06:11.393Z,818.75
2019-01-04T09:12:42.017Z,816.53
2019-01-04T09:19:13.190Z,821.65
2019-01-04T09:25:43.828Z,828.48
2019-01-04T09:29:08.062Z,819.28
2019-01-04T09:35:38.895Z,832.23
2019-01-04T09:39:03.521Z,837.78
2019-01-04T09:45:34.457Z,831.08
2019-01-04T09:48:59.286Z,833.53
2019-01-04T09:55:30.326Z,839.75
2019-01-04T09:58:54.686Z,839.85
2019-01-04T10:05:25.807Z,833.27
2019-01-04T10:08:50.307Z,828.80
2019-01-04T10:15:21.232Z,831.58
2019-01-04T10:21:51.847Z,825.90
2019-01-04T10:28:22.927Z,826.92
2019-01-04T10:34:53.656Z,834.10
2019-01-04T10:41:24.631Z,829.37
2019-01-04T10:44:49.069Z,838.20
2019-01-04T10:51:20.176Z,832.83
2019-01-04T10:54:44.559Z,829.60
2019-01-04T11:01:15.479Z,832.00
2019-01-04T11:04:39.557Z,836.97
2019-01-04T11:11:10.399Z,834.70
2019-01-04T11:14:34.607Z,836.80
2019-01-04T11:21:06.811Z,836.88
2019-01-04T11:23:54.540Z,834.62
2019-01-04T11:30:27.845Z,825.87
2019-01-04T11:37:11.140Z,823.42
2019-01-04T11:39:58.980Z,821.08
2019-01-04T11:43:23.711Z,819.67
2019-01-04T11:50:06.777Z,818.28
2019-01-04T11:56:37.444Z,824.30
2019-01-04T12:03:08.642Z,833.23
2019-01-04T12:09:39.644Z,830.87
2019-01-04T12:16:10.760Z,833.85
2019-01-04T12:22:41.669Z,832.42
2019-01-04T12:29:12.674Z,837.08
2019-01-04T12:35:43.571Z,838.17
2019-01-04T12:42:14.264Z,835.92
2019-01-04T12:48:45.325Z,840.53
2019-01-04T12:52:09.702Z,846.72
2019-01-04T12:58:40.668Z,841.47
2019-01-04T13:02:05.135Z,844.40
2019-01-04T13:08:35.598Z,845.30
2019-01-04T13:12:00.099Z,843.90
2019-01-04T13:18:31.245Z,848.87
2019-01-04T13:25:02.001Z,840.08
2019-01-04T13:31:32.717Z,832.37
2019-01-04T13:38:03.698Z,827.60
2019-01-04T13:44:34.211Z,826.62
2019-01-04T13:47:58.747Z,823.25
2019-01-04T13:54:29.449Z,822.35
2019-01-04T13:57:35.994Z,818.62
2019-01-04T14:04:07.183Z,820.27
2019-01-04T14:06:53.425Z,821.90
2019-01-04T14:14:17.890Z,820.85
2019-01-04T14:20:48.586Z,829.15
2019-01-04T14:27:19.267Z,836.37
2019-01-04T14:33:51.065Z,848.45
2019-01-04T14:40:21.392Z,849.35
2019-01-04T14:43:45.815Z,849.55
2019-01-04T14:50:17.175Z,863.05
2019-01-04T14:53:41.578Z,858.62
2019-01-04T15:00:12.672Z,859.73
2019-01-04T15:03:25.037Z,849.75
2019-01-04T15:09:55.203Z,847.23
2019-01-04T15:13:19.181Z,854.75
2019-01-04T15:19:49.384Z,837.25
2019-01-04T15:26:19.447Z,846.48
2019-01-04T15:28:49.357Z,842.88
2019-01-04T15:35:19.335Z,840.10
2019-01-04T15:38:43.538Z,837.18
2019-01-04T15:45:13.766Z,829.63
2019-01-04T15:48:38.349Z,832.17
2019-01-04T15:55:09.165Z,816.38
2019-01-04T16:01:39.884Z,825.80
2019-01-04T16:05:04.200Z,822.57
2019-01-04T16:11:34.716Z,821.85
2019-01-04T16:14:59.346Z,818.33
2019-01-04T16:21:30.440Z,813.50
2019-01-04T16:24:15.450Z,819.03
2019-01-04T16:30:45.652Z,816.60
2019-01-04T16:41:16.131Z,815.10
2019-01-04T16:44:40.279Z,814.17
2019-01-04T16:51:12.099Z,823.47
2019-01-04T16:57:42.314Z,818.77
2019-01-04T17:04:12.568Z,822.42
2019-01-04T17:10:43.225Z,823.87
2019-01-04T17:14:07.838Z,824.92
2019-01-04T17:20:38.535Z,835.90
2019-01-04T17:27:09.607Z,835.20
2019-01-04T17:29:49.102Z,842.15
2019-01-04T17:32:19.029Z,832.45
2019-01-04T17:38:49.346Z,846.37
2019-01-04T17:45:20.181Z,840.75
2019-01-04T17:51:50.413Z,845.42
2019-01-04T17:55:14.844Z,840.92
2019-01-04T18:01:45.416Z,849.58
2019-01-04T18:05:09.487Z,845.85
2019-01-04T18:11:40.077Z,852.43
2019-01-04T18:18:10.517Z,845.23
2019-01-04T18:20:58.555Z,843.73
2019-01-04T18:27:29.331Z,846.20
2019-01-04T18:30:22.227Z,843.15
2019-01-04T18:32:52.135Z,837.78
2019-01-04T18:39:22.432Z,839.40
2019-01-04T18:45:52.903Z,841.62
2019-01-04T18:52:22.705Z,846.80
2019-01-04T18:55:46.678Z,847.70
2019-01-04T19:02:35.953Z,855.27
2019-01-04T19:05:30.402Z,880.63
2019-01-04T19:08:00.439Z,860.48
2019-01-04T19:10:30.788Z,852.15
2019-01-04T19:13:01.840Z,849.87
2019-01-04T19:15:31.826Z,849.05
2019-01-04T19:18:55.996Z,847.83
2019-01-04T19:25:26.911Z,840.65
2019-01-04T19:28:51.259Z,837.03
2019-01-04T19:35:22.332Z,833.80
2019-01-04T19:38:46.824Z,830.25
2019-01-04T19:45:18.137Z,839.25
2019-01-04T19:48:42.877Z,839.08
2019-01-04T19:55:13.643Z,839.55
2019-01-04T19:58:38.444Z,837.15
2019-01-04T20:05:09.067Z,843.25
2019-01-04T20:12:07.283Z,843.20
2019-01-04T20:15:13.365Z,845.77
2019-01-04T20:21:48.482Z,845.12
2019-01-04T20:24:35.256Z,8.73
2019-01-04T20:27:59.719Z,9.20
2019-01-04T20:34:32.180Z,534.60
2019-01-04T20:37:56.714Z,357.92
2019-01-04T20:44:29.873Z,606.35
2019-01-04T20:51:02.958Z,699.73
2019-01-04T20:57:41.440Z,765.15
2019-01-04T21:04:30.579Z,785.20
2019-01-04T21:07:02.218Z,773.15
2019-01-04T21:13:43.773Z,769.30
2019-01-04T21:16:17.966Z,761.42
2019-01-04T21:19:42.548Z,760.37
2019-01-04T21:26:17.482Z,778.33
2019-01-04T21:32:52.693Z,787.12
2019-01-04T21:35:36.650Z,782.83
2019-01-04T21:38:11.571Z,779.65
2019-01-04T21:45:02.252Z,776.75
2019-01-04T21:51:52.988Z,780.85
2019-01-04T21:54:27.242Z,772.02
2019-01-04T21:57:04.629Z,777.73
2019-01-04T21:59:52.582Z,784.20
2019-01-04T22:06:24.514Z,808.38
2019-01-04T22:13:12.200Z,778.15
2019-01-04T22:16:36.766Z,788.45
2019-01-04T22:23:17.840Z,811.35
2019-01-04T22:26:05.639Z,779.95
2019-01-04T22:28:37.287Z,795.98
2019-01-04T22:31:08.893Z,806.83
2019-01-04T22:34:33.431Z,791.33
2019-01-04T22:41:17.652Z,817.37
2019-01-04T22:44:05.615Z,812.40
2019-01-04T22:47:30.069Z,809.75
2019-01-04T23:29:04.895Z,819.13
2019-01-04T23:31:59.060Z,860.20
2019-01-04T23:38:30.904Z,848.55
2019-01-04T23:45:08.548Z,820.65
2019-01-04T23:51:56.606Z,854.80
2019-01-04T23:55:21.109Z,840.85
